Time;durP1;ratioP1;P1;durP2;ratioP2;P2;SDS_P1;SDS_P2;PMS_P1;PMS_P2;Temp;Humidity;BMP_temperature;BMP_pressure;BME280_temperature;BME280_humidity;BME280_pressure;Samples;Min_cycle;Max_cycle;Signal;HPM_P1;HPM_P2
2023/01/28 00:00:30;;;;;;;10.15;5.28;;;0.80;1.00;;;;;;7364812;19;20018;-80
2023/01/28 00:03:00;;;;;;;8.60;5.28;;;0.90;1.00;;;;;;7388609;19;20489;-78
2023/01/28 00:05:33;;;;;;;8.70;5.43;;;0.80;1.00;;;;;;7367008;19;20011;-79
2023/01/28 00:08:03;;;;;;;8.07;5.45;;;0.80;1.00;;;;;;7367621;19;20306;-79
2023/01/28 00:10:33;;;;;;;7.57;4.95;;;0.90;1.00;;;;;;7363031;19;20043;-79
2023/01/28 00:13:03;;;;;;;7.68;4.72;;;0.80;1.00;;;;;;7368966;19;20007;-77
2023/01/28 00:15:33;;;;;;;6.95;4.65;;;0.80;1.00;;;;;;7367525;19;20019;-78
2023/01/28 00:18:03;;;;;;;6.78;5.05;;;0.90;1.00;;;;;;7388117;19;20035;-78
2023/01/28 00:20:36;;;;;;;7.07;4.95;;;0.90;1.00;;;;;;7366196;19;20011;-77
2023/01/28 00:23:06;;;;;;;6.80;4.13;;;0.80;1.00;;;;;;7366102;19;20015;-79
2023/01/28 00:25:36;;;;;;;7.03;4.50;;;0.80;1.00;;;;;;7366858;19;20093;-77
2023/01/28 00:28:06;;;;;;;7.32;4.55;;;0.80;1.00;;;;;;7366482;19;20015;-77
2023/01/28 00:30:36;;;;;;;6.95;4.20;;;0.90;1.00;;;;;;7363364;19;20015;-77
2023/01/28 00:33:06;;;;;;;7.75;4.28;;;0.90;1.00;;;;;;7388072;19;20113;-78
2023/01/28 00:35:39;;;;;;;6.40;3.92;;;0.80;1.00;;;;;;7365782;19;20022;-78
2023/01/28 00:38:09;;;;;;;6.97;4.32;;;0.80;1.00;;;;;;7365931;19;20011;-78
2023/01/28 00:40:39;;;;;;;6.82;4.25;;;0.80;1.00;;;;;;7363836;19;20011;-78
2023/01/28 00:43:09;;;;;;;10.10;4.57;;;0.90;1.00;;;;;;7366247;19;20011;-77
2023/01/28 00:45:38;;;;;;;7.85;4.47;;;0.80;1.00;;;;;;7365096;19;20021;-79
2023/01/28 00:48:08;;;;;;;6.85;4.30;;;0.80;1.00;;;;;;7391649;19;20018;-78
2023/01/28 00:50:41;;;;;;;5.60;3.83;;;0.80;1.00;;;;;;7363936;19;20014;-78
2023/01/28 00:53:11;;;;;;;7.57;4.57;;;0.80;1.00;;;;;;7365802;19;20081;-78
2023/01/28 00:55:40;;;;;;;7.53;4.32;;;0.80;1.00;;;;;;7364537;19;20015;-78
2023/01/28 00:58:10;;;;;;;6.55;4.00;;;0.80;1.00;;;;;;7365517;19;20898;-78
2023/01/28 01:00:40;;;;;;;5.50;3.70;;;0.80;1.00;;;;;;7362957;19;20014;-77
2023/01/28 01:03:10;;;;;;;5.75;3.60;;;0.80;1.00;;;;;;7387761;19;20014;-77
2023/01/28 01:05:42;;;;;;;5.78;3.35;;;0.80;1.00;;;;;;7368609;19;20026;-78
2023/01/28 01:08:12;;;;;;;7.03;3.88;;;0.90;1.00;;;;;;7364846;19;20015;-78
2023/01/28 01:10:42;;;;;;;6.20;4.20;;;0.80;1.00;;;;;;7363352;19;20014;-78
2023/01/28 01:13:12;;;;;;;7.55;4.03;;;0.80;1.00;;;;;;7365443;19;20392;-78
2023/01/28 01:15:42;;;;;;;7.15;4.30;;;0.80;1.00;;;;;;7365286;19;20094;-79
2023/01/28 01:18:12;;;;;;;6.78;4.00;;;0.80;1.00;;;;;;7386147;19;20014;-78
2023/01/28 01:20:44;;;;;;;6.70;3.85;;;0.80;1.00;;;;;;7363588;19;20481;-78
2023/01/28 01:23:14;;;;;;;6.68;4.05;;;0.80;1.00;;;;;;7364204;19;20011;-78
2023/01/28 01:25:44;;;;;;;6.20;4.15;;;0.80;1.00;;;;;;7364783;19;20014;-78
2023/01/28 01:28:14;;;;;;;6.40;3.95;;;0.80;1.00;;;;;;7363982;19;20077;-78
2023/01/28 01:30:44;;;;;;;9.77;4.15;;;0.80;1.00;;;;;;7362160;19;20035;-78
2023/01/28 01:33:14;;;;;;;6.50;4.18;;;0.80;1.00;;;;;;7383752;19;20014;-78
2023/01/28 01:35:54;;;;;;;8.57;4.90;;;0.80;1.00;;;;;;7363160;19;20011;-78
2023/01/28 01:38:24;;;;;;;7.00;4.68;;;0.80;1.00;;;;;;7362345;19;20011;-78
2023/01/28 01:40:54;;;;;;;6.32;3.88;;;0.80;1.00;;;;;;7363286;19;20031;-78
2023/01/28 01:43:24;;;;;;;6.05;4.03;;;0.80;1.00;;;;;;7365070;19;20077;-78
2023/01/28 01:45:57;;;;;;;5.85;3.55;;;0.80;1.00;;;;;;7365638;19;20014;-79
2023/01/28 01:48:33;;;;;;;6.07;3.42;;;0.80;1.00;;;;;;7361891;19;20081;-79
2023/01/28 01:51:10;;;;;;;6.20;3.67;;;0.80;1.00;;;;;;7384842;19;20014;-78
2023/01/28 01:53:44;;;;;;;5.93;3.65;;;0.70;1.00;;;;;;7363156;19;20021;-78
2023/01/28 01:56:18;;;;;;;5.57;3.72;;;0.80;1.00;;;;;;7362673;19;20053;-78
2023/01/28 01:58:52;;;;;;;7.50;4.03;;;0.80;1.00;;;;;;7362216;19;20422;-78
2023/01/28 02:01:24;;;;;;;6.03;3.67;;;0.80;1.00;;;;;;7361791;19;20415;-78
2023/01/28 02:04:00;;;;;;;5.93;3.35;;;0.80;1.00;;;;;;7363102;19;20010;-78
2023/01/28 02:06:34;;;;;;;8.35;4.00;;;0.80;1.00;;;;;;7362608;19;20018;-79
2023/01/28 02:09:08;;;;;;;6.57;4.25;;;0.80;1.00;;;;;;7382619;19;20782;-78
2023/01/28 02:11:38;;;;;;;6.95;4.10;;;0.80;1.00;;;;;;7361748;19;20014;-78
2023/01/28 02:14:08;;;;;;;6.28;3.40;;;0.80;1.00;;;;;;7365016;19;20091;-79
2023/01/28 02:16:43;;;;;;;6.03;3.97;;;0.80;1.00;;;;;;7362807;19;20010;-78
2023/01/28 02:19:14;;;;;;;5.95;3.85;;;0.80;1.00;;;;;;7360751;19;20562;-78
2023/01/28 02:22:18;;;;;;;7.53;4.10;;;0.80;1.00;;;;;;7362451;19;20006;-79
2023/01/28 02:25:02;;;;;;;5.78;3.80;;;0.80;1.00;;;;;;7360201;19;20014;-78
2023/01/28 02:27:39;;;;;;;7.57;3.75;;;0.80;1.00;;;;;;7361842;19;20011;-79
2023/01/28 02:30:17;;;;;;;6.57;3.60;;;0.80;1.00;;;;;;7381806;19;20022;-78
2023/01/28 02:32:55;;;;;;;6.95;4.18;;;0.80;1.00;;;;;;7360586;19;20014;-78
2023/01/28 02:35:36;;;;;;;6.13;3.60;;;0.80;1.00;;;;;;7361807;19;20184;-79
2023/01/28 02:38:12;;;;;;;6.03;3.95;;;0.80;1.00;;;;;;7360694;19;20495;-78
2023/01/28 02:43:35;;;;;;;6.82;3.85;;;0.80;1.00;;;;;;7361320;19;20010;-79
2023/01/28 02:49:00;;;;;;;5.68;3.58;;;0.80;1.30;;;;;;7361273;19;20018;-78
2023/01/28 02:51:53;;;;;;;9.57;4.75;;;0.80;1.30;;;;;;7360777;19;20014;-78
2023/01/28 02:54:33;;;;;;;6.55;4.03;;;0.80;1.60;;;;;;7383142;19;20018;-78
2023/01/28 02:57:13;;;;;;;6.68;4.30;;;0.80;2.10;;;;;;7360998;19;20010;-77
2023/01/28 02:59:51;;;;;;;6.75;4.18;;;0.80;2.60;;;;;;7359145;19;20021;-77
2023/01/28 03:02:32;;;;;;;8.52;4.72;;;0.80;2.70;;;;;;7360638;19;20019;-78
2023/01/28 03:05:07;;;;;;;7.70;4.15;;;0.80;2.70;;;;;;7362069;19;20058;-78
2023/01/28 03:07:39;;;;;;;7.53;3.97;;;0.80;2.70;;;;;;7359933;19;20490;-78
2023/01/28 03:10:13;;;;;;;7.97;4.70;;;0.80;2.70;;;;;;7361118;19;20021;-77
2023/01/28 03:37:43;;;;;;;8.50;5.25;;;0.80;4.30;;;;;;7362984;19;20029;-78
2023/01/28 03:40:14;;;;;;;7.80;4.97;;;0.80;4.10;;;;;;7358616;19;20015;-78
2023/01/28 03:42:44;;;;;;;8.30;4.78;;;0.80;4.20;;;;;;7359878;19;20018;-79
2023/01/28 03:45:14;;;;;;;8.38;4.88;;;0.80;4.50;;;;;;7381798;19;20019;-78
2023/01/28 03:47:45;;;;;;;9.02;5.15;;;0.80;4.70;;;;;;7359686;19;20379;-78
2023/01/28 03:50:18;;;;;;;7.97;5.18;;;0.80;4.70;;;;;;7358506;19;20021;-78
2023/01/28 03:52:48;;;;;;;9.52;5.63;;;0.80;5.00;;;;;;7358933;19;20011;-78
2023/01/28 03:55:18;;;;;;;9.23;5.38;;;0.80;5.20;;;;;;7359610;19;20050;-78
2023/01/28 03:57:48;;;;;;;8.38;4.82;;;0.80;5.20;;;;;;7365183;19;20432;-79
2023/01/28 04:00:20;;;;;;;7.28;5.00;;;0.80;5.20;;;;;;7385827;19;20038;-78
2023/01/28 04:02:50;;;;;;;8.95;5.03;;;0.80;5.50;;;;;;7366864;19;20036;-78
2023/01/28 04:05:24;;;;;;;9.00;5.18;;;0.80;5.70;;;;;;7366300;19;20034;-78
2023/01/28 04:07:56;;;;;;;9.25;5.18;;;0.80;5.80;;;;;;7366627;19;20485;-78
2023/01/28 04:10:26;;;;;;;8.13;5.05;;;0.80;5.80;;;;;;7365273;19;20090;-79
2023/01/28 04:12:55;;;;;;;8.55;5.47;;;0.80;5.80;;;;;;7368352;19;20052;-79
2023/01/28 04:15:25;;;;;;;7.47;4.40;;;0.80;6.00;;;;;;7383517;19;20490;-79
2023/01/28 04:17:55;;;;;;;7.78;4.82;;;0.80;6.20;;;;;;7387916;19;20416;-78
2023/01/28 04:20:27;;;;;;;6.97;4.63;;;0.80;6.30;;;;;;7364619;19;20712;-78
2023/01/28 04:22:57;;;;;;;9.00;5.65;;;0.80;6.30;;;;;;7366361;19;20073;-78
2023/01/28 04:25:27;;;;;;;10.95;5.55;;;0.80;6.90;;;;;;7366534;19;20078;-78
2023/01/28 04:27:57;;;;;;;9.35;5.60;;;0.80;6.70;;;;;;7366325;19;20011;-78
2023/01/28 04:30:27;;;;;;;8.95;5.43;;;0.80;6.90;;;;;;7362891;19;20029;-78
2023/01/28 04:32:57;;;;;;;9.18;5.47;;;0.80;7.30;;;;;;7391029;19;20022;-78
2023/01/28 04:35:30;;;;;;;8.70;4.75;;;0.80;7.80;;;;;;7365730;19;20485;-78
2023/01/28 04:37:59;;;;;;;10.05;5.63;;;0.80;8.20;;;;;;7365916;19;20018;-77
2023/01/28 04:40:29;;;;;;;8.70;5.13;;;0.80;8.10;;;;;;7364376;19;20025;-78
2023/01/28 04:43:00;;;;;;;9.20;5.93;;;0.80;8.20;;;;;;7367300;19;20899;-78
2023/01/28 04:45:30;;;;;;;10.27;6.22;;;0.80;8.60;;;;;;7365418;19;20018;-78
2023/01/28 04:47:59;;;;;;;7.45;4.93;;;0.80;8.40;;;;;;7386241;19;20783;-77
2023/01/28 04:50:32;;;;;;;11.07;6.53;;;0.80;9.00;;;;;;7364309;19;20039;-78
2023/01/28 04:53:02;;;;;;;10.20;5.70;;;0.80;9.30;;;;;;7364677;19;20053;-78
2023/01/28 04:55:32;;;;;;;7.65;5.45;;;0.80;9.60;;;;;;7365045;19;20014;-78
2023/01/28 04:58:02;;;;;;;8.75;5.53;;;0.80;9.90;;;;;;7365461;19;20007;-78
2023/01/28 05:00:32;;;;;;;10.63;6.22;;;0.80;9.90;;;;;;7361705;19;20018;-79
2023/01/28 05:03:01;;;;;;;9.95;6.18;;;0.80;9.90;;;;;;7386347;19;20481;-78
2023/01/28 05:05:34;;;;;;;9.73;5.85;;;0.80;10.60;;;;;;7364661;19;20014;-78
2023/01/28 05:08:04;;;;;;;10.02;6.18;;;0.80;11.00;;;;;;7362559;19;20852;-78
2023/01/28 05:10:33;;;;;;;10.32;6.25;;;0.80;11.70;;;;;;7363000;19;20078;-77
2023/01/28 05:13:03;;;;;;;10.93;6.20;;;0.80;12.20;;;;;;7366050;19;20010;-77
2023/01/28 05:15:33;;;;;;;9.88;6.20;;;0.80;12.30;;;;;;7363644;19;20358;-79
2023/01/28 05:18:03;;;;;;;9.70;5.68;;;0.80;12.70;;;;;;7385516;19;20025;-77
2023/01/28 05:20:35;;;;;;;12.73;6.10;;;0.80;12.70;;;;;;7362562;19;20021;-78
2023/01/28 05:23:05;;;;;;;12.32;7.25;;;0.80;13.50;;;;;;7364222;19;20011;-77
2023/01/28 05:25:35;;;;;;;11.70;6.90;;;0.80;14.10;;;;;;7364578;19;20010;-78
2023/01/28 05:28:05;;;;;;;16.88;11.77;;;0.90;14.60;;;;;;7363413;19;20487;-78
2023/01/28 05:30:35;;;;;;;13.02;7.35;;;0.80;14.60;;;;;;7363515;19;20390;-78
2023/01/28 05:33:04;;;;;;;14.60;9.20;;;0.90;15.10;;;;;;7384283;19;20023;-78
2023/01/28 05:35:37;;;;;;;14.43;7.80;;;0.90;15.60;;;;;;7363360;19;20015;-77
2023/01/28 05:38:07;;;;;;;11.40;7.25;;;0.90;15.40;;;;;;7362832;19;20018;-77
2023/01/28 05:40:37;;;;;;;12.93;7.15;;;0.90;15.90;;;;;;7361737;19;20018;-77
2023/01/28 05:43:07;;;;;;;12.02;6.72;;;0.80;16.10;;;;;;7363533;19;20014;-78
2023/01/28 05:45:37;;;;;;;12.90;7.95;;;0.80;16.70;;;;;;7363319;19;20014;-78
2023/01/28 05:48:08;;;;;;;9.75;7.03;;;0.80;17.00;;;;;;7384751;19;20897;-78
2023/01/28 05:50:40;;;;;;;10.52;6.70;;;0.70;16.90;;;;;;7362443;19;20025;-78
2023/01/28 05:53:11;;;;;;;11.25;7.15;;;0.70;17.70;;;;;;7362676;19;20089;-78
2023/01/28 05:55:41;;;;;;;10.80;7.15;;;0.70;17.90;;;;;;7362728;19;20011;-78
2023/01/28 05:58:10;;;;;;;13.73;8.07;;;0.80;18.30;;;;;;7362803;19;20819;-78
2023/01/28 06:00:40;;;;;;;11.10;6.65;;;0.80;18.30;;;;;;7360197;19;20613;-78
2023/01/28 06:03:10;;;;;;;10.43;7.30;;;0.70;18.20;;;;;;7383999;19;20026;-77
2023/01/28 06:05:42;;;;;;;11.02;6.70;;;0.80;18.40;;;;;;7363055;19;20018;-79
2023/01/28 06:08:12;;;;;;;12.10;7.72;;;0.80;18.50;;;;;;7362625;19;20497;-77
2023/01/28 06:10:42;;;;;;;11.15;6.88;;;0.80;18.50;;;;;;7360629;19;20355;-78
2023/01/28 06:13:12;;;;;;;11.02;7.07;;;0.80;18.40;;;;;;7365201;19;20011;-78
2023/01/28 06:15:42;;;;;;;11.00;7.00;;;0.80;18.60;;;;;;7361895;19;20341;-78
2023/01/28 06:18:12;;;;;;;11.07;6.35;;;0.80;18.50;;;;;;7383873;19;20436;-78
2023/01/28 06:20:44;;;;;;;12.13;6.72;;;0.80;18.80;;;;;;7362094;19;20043;-77
2023/01/28 06:23:14;;;;;;;12.30;7.28;;;0.80;18.80;;;;;;7361778;19;20082;-78
2023/01/28 06:25:44;;;;;;;10.75;6.97;;;0.80;18.80;;;;;;7364822;19;20014;-78
2023/01/28 06:28:15;;;;;;;12.35;7.25;;;0.80;19.10;;;;;;7364887;19;20386;-78
2023/01/28 06:30:44;;;;;;;13.27;8.05;;;0.80;19.20;;;;;;7361550;19;20031;-78
2023/01/28 06:33:14;;;;;;;13.05;7.68;;;0.80;19.80;;;;;;7383155;19;20025;-78
2023/01/28 06:35:47;;;;;;;10.85;7.30;;;0.80;20.00;;;;;;7363600;19;20054;-75
2023/01/28 06:38:17;;;;;;;12.10;7.65;;;0.80;20.20;;;;;;7361587;19;20010;-78
2023/01/28 06:40:54;;;;;;;12.27;8.18;;;0.80;20.40;;;;;;7362478;19;20021;-78
2023/01/28 06:43:26;;;;;;;13.55;8.20;;;0.80;20.90;;;;;;7361461;19;20010;-77
2023/01/28 06:45:56;;;;;;;13.25;7.97;;;0.80;20.40;;;;;;7361751;19;20015;-78
2023/01/28 06:48:27;;;;;;;12.80;8.18;;;0.80;20.70;;;;;;7371083;19;20029;-78
2023/01/28 06:50:59;;;;;;;12.95;7.72;;;0.80;21.10;;;;;;7383050;19;20513;-77
2023/01/28 06:53:29;;;;;;;13.50;8.48;;;0.80;21.30;;;;;;7360592;19;20019;-77
2023/01/28 06:55:59;;;;;;;13.02;8.40;;;0.80;21.50;;;;;;7361358;19;20018;-78
2023/01/28 06:58:29;;;;;;;13.07;8.02;;;0.80;21.70;;;;;;7360448;19;20086;-79
2023/01/28 07:00:58;;;;;;;13.00;8.32;;;0.80;22.00;;;;;;7361750;19;20038;-78
2023/01/28 07:03:28;;;;;;;13.00;7.90;;;0.80;22.30;;;;;;7361006;19;20039;-77
2023/01/28 07:06:01;;;;;;;14.98;8.55;;;0.80;22.20;;;;;;7382247;19;20018;-77
2023/01/28 07:08:31;;;;;;;12.57;7.97;;;0.80;22.50;;;;;;7359518;19;20488;-78
2023/01/28 07:11:02;;;;;;;15.50;8.40;;;0.80;22.60;;;;;;7360635;19;20522;-78
2023/01/28 07:13:32;;;;;;;12.52;8.48;;;0.80;23.40;;;;;;7364062;19;20466;-78
2023/01/28 07:16:03;;;;;;;15.35;9.35;;;0.80;23.80;;;;;;7358965;19;20010;-78
2023/01/28 07:18:32;;;;;;;13.70;8.45;;;0.80;23.70;;;;;;7359876;19;20015;-79
2023/01/28 07:21:05;;;;;;;13.80;7.85;;;0.80;23.70;;;;;;7383207;19;20041;-79
2023/01/28 07:23:35;;;;;;;14.60;8.98;;;0.80;23.70;;;;;;7362658;19;20025;-78
2023/01/28 07:26:06;;;;;;;14.02;8.63;;;0.90;23.90;;;;;;7361048;19;20043;-78
2023/01/28 07:28:36;;;;;;;15.73;9.32;;;0.80;24.50;;;;;;7360288;19;20586;-78
2023/01/28 07:31:06;;;;;;;15.25;9.32;;;0.80;24.40;;;;;;7360549;19;20393;-78
2023/01/28 07:33:36;;;;;;;14.73;8.48;;;0.90;24.80;;;;;;7367463;19;20018;-78
2023/01/28 07:36:10;;;;;;;16.10;9.55;;;0.90;24.70;;;;;;7386188;19;20022;-77
2023/01/28 07:38:40;;;;;;;15.60;8.90;;;0.90;25.00;;;;;;7366231;19;20151;-78
2023/01/28 07:41:09;;;;;;;14.52;9.25;;;0.90;24.90;;;;;;7367340;19;20035;-79
2023/01/28 07:43:39;;;;;;;14.95;9.13;;;1.00;25.30;;;;;;7367517;19;20018;-78
2023/01/28 07:46:09;;;;;;;15.75;8.80;;;1.00;25.10;;;;;;7367041;19;20015;-79
2023/01/28 07:48:39;;;;;;;16.25;8.75;;;1.00;25.00;;;;;;7365125;19;20664;-78
2023/01/28 07:51:11;;;;;;;16.13;9.65;;;1.00;25.50;;;;;;7388400;19;20493;-79
2023/01/28 07:53:41;;;;;;;16.45;9.25;;;1.00;25.40;;;;;;7366440;19;20007;-79
2023/01/28 07:56:11;;;;;;;14.05;8.95;;;1.00;25.40;;;;;;7365409;19;20071;-80
2023/01/28 07:58:41;;;;;;;15.70;8.40;;;1.00;25.60;;;;;;7365595;19;20478;-79
2023/01/28 08:01:12;;;;;;;21.67;11.43;;;1.00;25.60;;;;;;7366899;19;20047;-79
2023/01/28 08:03:42;;;;;;;16.63;10.15;;;1.10;25.80;;;;;;7366359;19;20035;-78
2023/01/28 08:06:15;;;;;;;15.07;9.50;;;1.10;25.50;;;;;;7388481;19;20025;-79
2023/01/28 08:08:45;;;;;;;14.98;10.00;;;1.10;25.60;;;;;;7364951;19;20497;-78
2023/01/28 08:11:15;;;;;;;18.05;9.50;;;1.10;24.70;;;;;;7366277;19;20010;-79
2023/01/28 08:13:45;;;;;;;13.27;9.30;;;1.20;24.50;;;;;;7369196;19;20078;-78
2023/01/28 08:16:15;;;;;;;19.17;10.02;;;1.10;24.40;;;;;;7363769;19;20560;-79
2023/01/28 08:18:45;;;;;;;15.10;9.35;;;1.20;24.20;;;;;;7368790;19;20018;-79
2023/01/28 08:21:17;;;;;;;15.55;9.95;;;1.20;24.10;;;;;;7387638;19;20482;-78
2023/01/28 08:23:47;;;;;;;19.70;10.02;;;1.20;24.00;;;;;;7366064;19;20028;-78
2023/01/28 08:26:17;;;;;;;15.43;9.38;;;1.20;24.00;;;;;;7365655;19;20425;-78
2023/01/28 08:28:46;;;;;;;17.90;10.73;;;1.30;23.60;;;;;;7363794;19;20018;-78
2023/01/28 08:31:20;;;;;;;17.08;9.55;;;1.30;22.80;;;;;;7366234;19;20010;-78
2023/01/28 08:33:49;;;;;;;19.00;10.30;;;1.30;22.60;;;;;;7365282;19;20010;-77
2023/01/28 08:36:25;;;;;;;16.30;9.65;;;1.30;21.50;;;;;;7385626;19;20086;-78
2023/01/28 08:38:55;;;;;;;17.10;10.00;;;1.40;22.20;;;;;;7364145;19;20017;-78
2023/01/28 08:41:25;;;;;;;17.73;10.15;;;1.40;21.80;;;;;;7365278;19;20017;-78
2023/01/28 08:43:55;;;;;;;17.95;9.65;;;1.40;20.80;;;;;;7365772;19;20046;-78
2023/01/28 08:46:25;;;;;;;15.70;10.07;;;1.40;20.90;;;;;;7365848;19;20011;-79
2023/01/28 08:48:55;;;;;;;18.38;10.02;;;1.50;21.10;;;;;;7364382;19;20023;-78
2023/01/28 08:51:27;;;;;;;18.23;10.00;;;1.60;20.70;;;;;;7386910;19;20019;-79
2023/01/28 08:53:57;;;;;;;15.25;9.82;;;1.60;18.50;;;;;;7364689;19;20609;-79
2023/01/28 08:56:27;;;;;;;19.55;10.30;;;1.50;19.30;;;;;;7362774;19;20011;-79
2023/01/28 08:58:57;;;;;;;18.65;9.68;;;1.50;19.10;;;;;;7363522;19;20454;-79
2023/01/28 09:01:28;;;;;;;16.52;9.55;;;1.60;19.60;;;;;;7362953;19;20010;-78
2023/01/28 09:03:58;;;;;;;19.67;10.60;;;1.60;19.40;;;;;;7364648;19;20135;-79
2023/01/28 09:06:31;;;;;;;15.73;9.48;;;1.60;19.50;;;;;;7363920;19;20019;-79
2023/01/28 09:09:01;;;;;;;17.80;9.80;;;1.60;18.70;;;;;;7384623;19;20018;-78
2023/01/28 09:11:31;;;;;;;16.90;10.25;;;1.60;18.90;;;;;;7364565;19;20023;-78
2023/01/28 09:14:01;;;;;;;20.02;10.80;;;1.70;18.80;;;;;;7365284;19;20018;-79
2023/01/28 09:16:31;;;;;;;18.42;11.27;;;1.70;17.50;;;;;;7364035;19;20090;-77
2023/01/28 09:19:00;;;;;;;17.17;10.70;;;1.80;17.50;;;;;;7363278;19;20448;-79
2023/01/28 09:21:33;;;;;;;18.10;10.80;;;1.70;17.40;;;;;;7364301;19;20081;-78
2023/01/28 09:24:03;;;;;;;18.98;10.93;;;1.70;15.50;;;;;;7385981;19;20010;-78
2023/01/28 09:26:33;;;;;;;20.05;11.20;;;1.70;16.00;;;;;;7363568;19;20010;-79
2023/01/28 09:29:03;;;;;;;17.75;10.50;;;1.70;15.90;;;;;;7362635;19;20038;-79
2023/01/28 09:31:32;;;;;;;19.13;11.00;;;1.70;15.90;;;;;;7364337;19;20070;-79
2023/01/28 09:34:03;;;;;;;20.60;11.27;;;1.70;16.00;;;;;;7364172;19;20666;-78
2023/01/28 09:36:35;;;;;;;17.98;10.80;;;1.80;15.50;;;;;;7363754;19;20135;-79
2023/01/28 09:39:06;;;;;;;18.83;11.65;;;1.70;15.20;;;;;;7384495;19;20018;-79
2023/01/28 09:41:48;;;;;;;18.45;10.88;;;1.80;15.90;;;;;;7364662;19;20463;-79
2023/01/28 09:44:36;;;;;;;19.63;11.75;;;1.80;15.70;;;;;;7365099;19;20090;-78
2023/01/28 09:47:13;;;;;;;20.40;12.07;;;1.80;16.40;;;;;;7366013;19;20545;-79
2023/01/28 09:49:48;;;;;;;20.25;11.48;;;1.70;14.20;;;;;;7366823;19;20393;-79
2023/01/28 09:52:23;;;;;;;21.73;11.85;;;1.70;15.20;;;;;;7364521;19;20021;-79
2023/01/28 09:55:04;;;;;;;19.67;11.48;;;1.90;16.30;;;;;;7363838;19;20050;-79
2023/01/28 09:57:40;;;;;;;20.75;12.27;;;1.90;14.10;;;;;;7378083;19;20010;-79
2023/01/28 10:00:16;;;;;;;18.35;10.82;;;2.00;14.00;;;;;;7416268;19;20018;-79
2023/01/28 10:03:02;;;;;;;20.10;12.38;;;1.90;11.50;;;;;;7397793;19;20613;-79
2023/01/28 10:05:38;;;;;;;20.08;11.55;;;2.00;12.30;;;;;;7366403;19;20015;-79
2023/01/28 10:08:26;;;;;;;19.63;11.05;;;1.90;11.80;;;;;;7363713;19;20010;-79
2023/01/28 10:11:04;;;;;;;19.00;11.15;;;1.80;12.30;;;;;;7366422;19;20476;-79
2023/01/28 10:13:43;;;;;;;22.08;11.20;;;1.80;13.60;;;;;;7365584;19;20007;-79
2023/01/28 10:16:30;;;;;;;20.45;12.63;;;1.90;13.30;;;;;;7363922;19;20021;-80
2023/01/28 10:19:04;;;;;;;19.73;11.95;;;1.90;12.70;;;;;;7362918;19;20015;-80
2023/01/28 10:21:39;;;;;;;17.02;10.15;;;1.90;13.20;;;;;;7362882;19;20015;-79
2023/01/28 10:24:20;;;;;;;23.80;11.35;;;2.00;12.80;;;;;;7384901;19;20021;-79
2023/01/28 10:26:50;;;;;;;21.02;11.63;;;2.00;11.80;;;;;;7363060;19;20503;-80
2023/01/28 10:29:23;;;;;;;19.75;12.02;;;1.90;11.90;;;;;;7360955;19;20082;-80
2023/01/28 10:31:55;;;;;;;22.95;12.05;;;1.90;12.50;;;;;;7363148;19;20014;-80
2023/01/28 10:34:25;;;;;;;21.15;10.98;;;2.00;12.60;;;;;;7362877;19;20007;-79
2023/01/28 10:36:56;;;;;;;21.20;12.18;;;2.00;12.70;;;;;;7363111;19;20474;-79
2023/01/28 10:39:30;;;;;;;21.85;12.25;;;2.00;12.20;;;;;;7378924;19;20689;-83
2023/01/28 10:41:59;;;;;;;21.23;10.95;;;2.10;12.20;;;;;;7384107;19;20018;-80
2023/01/28 10:44:36;;;;;;;26.50;12.98;;;2.10;10.80;;;;;;7362669;19;20017;-79
2023/01/28 10:47:14;;;;;;;18.75;11.07;;;2.20;10.80;;;;;;7362024;19;20478;-80
2023/01/28 10:49:48;;;;;;;19.88;10.43;;;2.20;9.30;;;;;;7361767;19;20470;-79
2023/01/28 10:52:18;;;;;;;18.42;11.18;;;2.30;10.10;;;;;;7363113;19;20482;-79
2023/01/28 10:55:01;;;;;;;18.42;10.70;;;2.20;8.90;;;;;;7361050;19;20019;-80
2023/01/28 10:57:31;;;;;;;19.63;10.65;;;2.30;9.10;;;;;;7360463;19;20077;-79
2023/01/28 11:00:13;;;;;;;19.40;11.52;;;2.30;8.50;;;;;;7381535;19;20023;-80
2023/01/28 11:02:43;;;;;;;21.13;12.50;;;2.40;9.10;;;;;;7361014;19;20063;-79
2023/01/28 11:05:19;;;;;;;16.75;10.25;;;2.40;9.20;;;;;;7361581;19;20017;-80
2023/01/28 11:07:50;;;;;;;19.38;11.73;;;2.30;10.00;;;;;;7369432;19;20059;-81
2023/01/28 11:10:41;;;;;;;17.63;10.57;;;2.40;9.20;;;;;;7367920;19;20018;-80
2023/01/28 11:13:18;;;;;;;27.70;18.23;;;2.30;7.60;;;;;;7371551;19;20486;-81
2023/01/28 11:15:49;;;;;;;19.67;11.95;;;2.30;7.20;;;;;;7367974;19;20919;-79
2023/01/28 11:18:23;;;;;;;20.90;11.77;;;2.30;7.60;;;;;;7387093;19;20022;-79
2023/01/28 11:20:56;;;;;;;20.13;11.30;;;2.10;7.20;;;;;;7368135;19;20014;-80
2023/01/28 11:23:28;;;;;;;17.52;10.52;;;2.20;9.30;;;;;;7367632;19;20014;-80
2023/01/28 11:26:09;;;;;;;17.63;10.57;;;2.20;7.20;;;;;;7367657;19;20015;-80
2023/01/28 11:28:44;;;;;;;21.52;10.80;;;2.00;7.10;;;;;;7367447;19;20046;-80
2023/01/28 11:31:17;;;;;;;17.77;10.27;;;2.10;7.80;;;;;;7368666;19;20015;-81
2023/01/28 11:33:52;;;;;;;20.83;11.10;;;2.00;7.90;;;;;;7369607;19;20067;-79
2023/01/28 11:36:24;;;;;;;20.35;11.35;;;2.10;8.50;;;;;;7389418;19;20015;-80
2023/01/28 11:38:56;;;;;;;19.35;10.73;;;2.10;7.80;;;;;;7367201;19;20020;-79
2023/01/28 11:41:31;;;;;;;23.52;11.77;;;2.00;8.00;;;;;;7367852;19;20011;-80
2023/01/28 11:44:11;;;;;;;19.92;11.52;;;2.10;8.30;;;;;;7367009;19;20006;-80
2023/01/28 11:46:54;;;;;;;19.33;11.15;;;2.00;8.20;;;;;;7367535;19;20082;-80
2023/01/28 11:49:34;;;;;;;22.00;11.73;;;2.00;8.50;;;;;;7366682;19;20022;-80
2023/01/28 11:52:12;;;;;;;21.15;11.10;;;2.00;9.20;;;;;;7367547;19;20113;-81
2023/01/28 11:54:55;;;;;;;21.02;11.18;;;2.00;9.20;;;;;;7367042;19;20014;-80
2023/01/28 11:57:35;;;;;;;18.75;9.88;;;1.90;10.30;;;;;;7387800;19;20320;-81
2023/01/28 12:00:26;;;;;;;19.17;10.05;;;1.90;11.80;;;;;;7364600;19;20017;-79
2023/01/28 12:03:06;;;;;;;19.98;10.80;;;1.90;13.70;;;;;;7370468;19;20011;-80
2023/01/28 12:05:47;;;;;;;15.50;8.90;;;1.90;15.80;;;;;;7366907;19;20031;-80
2023/01/28 12:08:23;;;;;;;17.08;9.40;;;1.80;17.50;;;;;;7366656;19;20007;-80
2023/01/28 12:12:10;;;;;;;20.15;11.10;;;1.70;19.20;;;;;;7367730;19;20011;-79
2023/01/28 12:14:27;;;;;;;21.25;10.88;;;1.60;20.70;;;;;;7369814;19;20118;-80
2023/01/28 12:17:09;;;;;;;18.95;9.52;;;1.60;22.50;;;;;;7364438;19;20017;-79
2023/01/28 12:19:51;;;;;;;17.25;9.82;;;1.50;24.70;;;;;;7366640;19;20507;-80
2023/01/28 12:23:05;;;;;;;18.58;10.50;;;1.60;25.70;;;;;;7367348;19;20010;-80
2023/01/28 12:25:45;;;;;;;18.08;10.30;;;1.50;27.10;;;;;;7364745;19;20021;-79
2023/01/28 12:28:23;;;;;;;18.88;10.48;;;1.40;28.00;;;;;;7366346;19;20039;-80
2023/01/28 12:31:10;;;;;;;19.13;9.93;;;1.50;29.60;;;;;;7365774;19;20474;-79
2023/01/28 12:34:17;;;;;;;19.20;11.13;;;1.30;29.40;;;;;;7366369;19;20362;-79
2023/01/28 12:36:57;;;;;;;18.55;10.80;;;1.50;30.80;;;;;;7365111;19;20023;-79
2023/01/28 12:39:42;;;;;;;18.25;10.35;;;1.40;30.90;;;;;;7370203;19;20036;-80
2023/01/28 12:42:16;;;;;;;20.48;10.65;;;1.40;30.90;;;;;;7387482;19;20565;-79
2023/01/28 12:44:53;;;;;;;18.70;10.73;;;1.30;30.80;;;;;;7365212;19;20534;-79
2023/01/28 12:47:31;;;;;;;16.17;9.00;;;1.30;30.90;;;;;;7364901;19;20031;-80
2023/01/28 12:50:06;;;;;;;22.77;11.18;;;1.30;31.00;;;;;;7365469;19;20014;-78
2023/01/28 12:52:41;;;;;;;21.08;11.73;;;1.20;31.90;;;;;;7364232;19;20014;-79
2023/01/28 12:55:17;;;;;;;19.10;11.50;;;1.30;32.50;;;;;;7365842;19;20114;-79
2023/01/28 12:57:49;;;;;;;23.75;12.05;;;1.30;32.20;;;;;;7365598;19;20420;-79
2023/01/28 13:00:28;;;;;;;19.98;11.30;;;1.30;32.30;;;;;;7386925;19;20021;-80
2023/01/28 13:03:12;;;;;;;19.98;10.73;;;1.30;32.80;;;;;;7366054;19;20011;-78
2023/01/28 13:05:48;;;;;;;20.38;11.60;;;1.30;32.40;;;;;;7366133;19;20011;-78
2023/01/28 13:08:24;;;;;;;19.50;10.90;;;1.30;32.80;;;;;;7365444;19;20025;-78
2023/01/28 13:10:56;;;;;;;20.65;10.90;;;1.30;31.90;;;;;;7367844;19;20010;-78
2023/01/28 13:13:32;;;;;;;18.75;10.02;;;1.40;31.80;;;;;;7374163;19;20487;-79
2023/01/28 13:16:03;;;;;;;16.83;11.13;;;1.30;30.80;;;;;;7365653;19;20385;-78
2023/01/28 13:18:45;;;;;;;18.38;10.27;;;1.30;29.90;;;;;;7366546;19;20117;-80
2023/01/28 13:21:18;;;;;;;17.73;10.63;;;1.40;29.50;;;;;;7418835;19;20391;-79
2023/01/28 13:23:50;;;;;;;17.92;10.27;;;1.40;28.80;;;;;;7400711;19;20010;-79
2023/01/28 13:26:32;;;;;;;18.70;9.95;;;1.40;29.00;;;;;;7399415;19;20061;-78
2023/01/28 13:29:21;;;;;;;19.63;9.82;;;1.40;27.30;;;;;;7386249;19;20022;-80
2023/01/28 13:31:53;;;;;;;18.67;9.55;;;1.40;25.20;;;;;;7369859;19;20021;-78
2023/01/28 13:34:39;;;;;;;14.02;8.65;;;1.50;24.60;;;;;;7367309;19;20018;-78
2023/01/28 13:37:22;;;;;;;15.65;9.82;;;1.60;24.20;;;;;;7367808;19;20014;-77
2023/01/28 13:39:57;;;;;;;16.20;8.70;;;1.50;23.00;;;;;;7369202;19;20018;-79
2023/01/28 13:42:27;;;;;;;;;;;1.60;22.10;;;;;;7379548;19;20010;-79
2023/01/28 13:44:58;;;;;;;14.57;8.93;;;1.60;21.00;;;;;;7388364;19;19922;-79
2023/01/28 13:47:33;;;;;;;16.92;9.70;;;1.60;19.50;;;;;;7365880;19;20038;-79
2023/01/28 13:50:09;;;;;;;16.15;9.30;;;1.70;20.10;;;;;;7370105;19;20078;-79
2023/01/28 13:52:47;;;;;;;15.32;9.10;;;1.70;19.30;;;;;;7366237;19;20070;-80